createdAt,value
2023-04-27T00:05:54.564Z,6.8
2023-04-27T00:16:00.475Z,6.8
2023-04-27T00:26:06.511Z,6.7
2023-04-27T00:36:12.560Z,6.5
2023-04-27T00:46:18.650Z,6.5
2023-04-27T00:56:24.653Z,6.5
2023-04-27T01:06:30.671Z,6.6
2023-04-27T01:16:36.832Z,6.6
2023-04-27T01:26:42.745Z,6.6
2023-04-27T01:36:48.789Z,6.4
2023-04-27T01:46:54.838Z,6.3
2023-04-27T01:57:00.880Z,6.3
2023-04-27T02:07:06.958Z,6.3
2023-04-27T02:17:12.973Z,6.3
2023-04-27T02:27:19.005Z,6.3
2023-04-27T02:37:25.366Z,6.2
2023-04-27T02:47:31.109Z,6.2
2023-04-27T02:57:37.143Z,6.4
2023-04-27T03:07:43.190Z,6.5
2023-04-27T03:17:49.237Z,6.5
2023-04-27T03:27:55.297Z,6.5
2023-04-27T03:38:01.304Z,6.3
2023-04-27T03:48:07.438Z,6.5
2023-04-27T03:58:13.415Z,6.6
2023-04-27T04:08:19.432Z,6.7
2023-04-27T04:18:25.502Z,6.7
2023-04-27T04:28:31.515Z,6.8
2023-04-27T04:38:37.559Z,6.8
2023-04-27T04:48:43.633Z,7.1
2023-04-27T04:58:49.657Z,8.5
2023-04-27T05:08:55.696Z,8.9
2023-04-27T05:19:01.773Z,8.8
2023-04-27T05:29:07.800Z,8.2
2023-04-27T05:39:14.031Z,7.9
2023-04-27T05:59:25.930Z,7.1
2023-04-27T06:09:31.978Z,7.2
2023-04-27T06:19:38.020Z,6.7
2023-04-27T06:29:44.041Z,6.5
2023-04-27T06:39:50.089Z,6.7
2023-04-27T06:49:56.142Z,6.7
2023-04-27T07:00:02.170Z,6.7
2023-04-27T07:10:08.218Z,6.5
2023-04-27T07:20:14.281Z,6.6
2023-04-27T07:30:20.299Z,6.4
2023-04-27T07:40:26.346Z,5.8
2023-04-27T07:50:32.405Z,6.4
2023-04-27T08:00:38.436Z,6.4
2023-04-27T08:10:44.458Z,6.2
2023-04-27T08:20:50.514Z,6.4
2023-04-27T08:30:56.600Z,6.5
2023-04-27T08:41:14.137Z,6.5
2023-04-27T08:51:08.636Z,6.3
2023-04-27T09:01:14.706Z,6.4
2023-04-27T09:11:20.736Z,6.9
2023-04-27T09:31:32.908Z,6.8
2023-04-27T09:41:38.860Z,6.8
2023-04-27T09:51:44.902Z,6.8
2023-04-27T10:01:50.966Z,6.8
2023-04-27T10:11:57.001Z,7.1
2023-04-27T10:22:03.028Z,7.1
2023-04-27T10:32:09.073Z,4.2
2023-04-27T10:42:15.123Z,3.7
2023-04-27T10:52:21.169Z,5.9
2023-04-27T11:02:27.373Z,6.3
2023-04-27T11:12:33.254Z,6.5
2023-04-27T11:22:39.322Z,6.6
2023-04-27T11:32:45.391Z,6.6
2023-04-27T11:42:51.405Z,6.8
2023-04-27T11:52:57.452Z,6.7
2023-04-27T12:03:03.686Z,7
2023-04-27T12:13:09.527Z,6.7
2023-04-27T12:23:15.594Z,6.3
2023-04-27T12:33:21.647Z,6.3
2023-04-27T12:43:27.665Z,6.6
2023-04-27T13:03:41.844Z,7
2023-04-27T13:13:47.669Z,7.2
2023-04-27T13:23:53.720Z,7.2
2023-04-27T13:33:59.760Z,7.2
2023-04-27T13:44:05.812Z,7.4
2023-04-27T13:54:12.094Z,7.4
2023-04-27T14:04:17.986Z,7.6
2023-04-27T14:14:23.927Z,7.6
2023-04-27T14:24:29.960Z,7.8
2023-04-27T14:34:35.997Z,7.8
2023-04-27T14:44:42.050Z,8
2023-04-27T14:54:48.066Z,8
2023-04-27T15:04:54.208Z,8
2023-04-27T15:15:00.212Z,8
2023-04-27T15:25:06.235Z,8
2023-04-27T15:35:12.262Z,8
2023-04-27T15:45:18.326Z,8
2023-04-27T15:55:24.369Z,8
2023-04-27T16:05:30.647Z,8
2023-04-27T16:15:36.435Z,8.1
2023-04-27T16:25:42.444Z,8.1
2023-04-27T16:35:48.527Z,8.1
2023-04-27T16:45:54.611Z,8.1
2023-04-27T16:56:00.622Z,8.1
2023-04-27T17:06:06.662Z,8.1
2023-04-27T17:16:12.764Z,8.1
2023-04-27T17:26:18.720Z,8
2023-04-27T17:36:24.793Z,8
2023-04-27T17:46:30.829Z,8
2023-04-27T17:56:36.884Z,8
2023-04-27T18:06:42.932Z,8
2023-04-27T18:16:49.093Z,8
2023-04-27T18:26:54.998Z,7.9
2023-04-27T18:37:01.037Z,7.9
2023-04-27T18:47:07.068Z,7.7
2023-04-27T18:57:13.118Z,7.7
2023-04-27T19:07:19.187Z,7.7
2023-04-27T19:17:25.522Z,7.7
2023-04-27T19:27:31.262Z,7.6
2023-04-27T19:37:37.279Z,7.6
2023-04-27T19:47:43.354Z,7.6
2023-04-27T19:57:49.383Z,7.6
2023-04-27T20:07:55.421Z,7.6
2023-04-27T20:18:01.552Z,7.5
2023-04-27T20:28:07.503Z,7.5
2023-04-27T20:38:13.557Z,7.3
2023-04-27T20:48:19.590Z,7.3
2023-04-27T20:58:25.652Z,7.3
2023-04-27T21:08:31.677Z,7.3
2023-04-27T21:18:37.775Z,7.3
2023-04-27T21:28:43.805Z,7.3
2023-04-27T21:38:49.840Z,7.3
2023-04-27T21:48:55.870Z,7.3
2023-04-27T21:59:01.916Z,7
2023-04-27T22:09:08.320Z,7.2
2023-04-27T22:19:13.982Z,7.2
2023-04-27T22:29:20.018Z,7.2
2023-04-27T22:39:26.051Z,7.2
2023-04-27T22:49:32.114Z,7.2
2023-04-27T22:59:38.170Z,7.2
2023-04-27T23:09:44.196Z,7.1
2023-04-27T23:19:50.233Z,7.1
2023-04-27T23:29:56.286Z,7.1
2023-04-27T23:40:02.340Z,7.1
2023-04-27T23:50:08.536Z,7.1
